sensor_id;sensor_type;location;lat;lon;timestamp;P1;durP1;ratioP1;P2;durP2;ratioP2
3541;SDS011;1785;47.388;8.538;2024-01-11T00:01:59;53.60;;;36.83;;
3541;SDS011;1785;47.388;8.538;2024-01-11T00:04:25;63.67;;;42.53;;
3541;SDS011;1785;47.388;8.538;2024-01-11T00:06:51;62.20;;;40.63;;
3541;SDS011;1785;47.388;8.538;2024-01-11T00:09:17;60.90;;;37.10;;
3541;SDS011;1785;47.388;8.538;2024-01-11T00:11:43;51.00;;;36.80;;
3541;SDS011;1785;47.388;8.538;2024-01-11T00:14:09;62.93;;;45.20;;
3541;SDS011;1785;47.388;8.538;2024-01-11T00:16:36;64.63;;;46.77;;
3541;SDS011;1785;47.388;8.538;2024-01-11T00:19:02;63.13;;;38.30;;
3541;SDS011;1785;47.388;8.538;2024-01-11T00:21:29;60.10;;;42.43;;
3541;SDS011;1785;47.388;8.538;2024-01-11T00:23:55;63.73;;;38.30;;
3541;SDS011;1785;47.388;8.538;2024-01-11T00:26:21;56.03;;;41.90;;
3541;SDS011;1785;47.388;8.538;2024-01-11T00:28:47;56.60;;;35.07;;
3541;SDS011;1785;47.388;8.538;2024-01-11T00:31:13;56.17;;;40.00;;
3541;SDS011;1785;47.388;8.538;2024-01-11T00:33:39;54.00;;;39.73;;
3541;SDS011;1785;47.388;8.538;2024-01-11T00:36:06;55.10;;;41.93;;
3541;SDS011;1785;47.388;8.538;2024-01-11T00:38:33;56.87;;;42.47;;
3541;SDS011;1785;47.388;8.538;2024-01-11T00:40:59;60.30;;;43.40;;
3541;SDS011;1785;47.388;8.538;2024-01-11T00:43:25;53.40;;;41.03;;
3541;SDS011;1785;47.388;8.538;2024-01-11T00:45:51;57.10;;;40.20;;
3541;SDS011;1785;47.388;8.538;2024-01-11T00:48:18;57.80;;;40.53;;
3541;SDS011;1785;47.388;8.538;2024-01-11T00:50:44;57.97;;;41.50;;
3541;SDS011;1785;47.388;8.538;2024-01-11T00:53:11;56.53;;;36.33;;
3541;SDS011;1785;47.388;8.538;2024-01-11T00:55:39;55.20;;;40.80;;
3541;SDS011;1785;47.388;8.538;2024-01-11T00:58:05;53.20;;;38.40;;
3541;SDS011;1785;47.388;8.538;2024-01-11T01:00:31;52.60;;;40.27;;
3541;SDS011;1785;47.388;8.538;2024-01-11T01:02:58;49.43;;;37.97;;
3541;SDS011;1785;47.388;8.538;2024-01-11T01:05:24;52.57;;;39.70;;
3541;SDS011;1785;47.388;8.538;2024-01-11T01:07:51;43.57;;;32.50;;
3541;SDS011;1785;47.388;8.538;2024-01-11T01:10:18;50.03;;;37.33;;
3541;SDS011;1785;47.388;8.538;2024-01-11T01:12:44;51.80;;;34.17;;
3541;SDS011;1785;47.388;8.538;2024-01-11T01:15:11;56.23;;;40.70;;
3541;SDS011;1785;47.388;8.538;2024-01-11T01:17:37;57.67;;;38.97;;
3541;SDS011;1785;47.388;8.538;2024-01-11T01:20:04;50.93;;;38.70;;
3541;SDS011;1785;47.388;8.538;2024-01-11T01:22:31;51.40;;;33.63;;
3541;SDS011;1785;47.388;8.538;2024-01-11T01:24:57;50.60;;;37.53;;
3541;SDS011;1785;47.388;8.538;2024-01-11T01:27:24;50.87;;;41.07;;
3541;SDS011;1785;47.388;8.538;2024-01-11T01:29:50;53.93;;;39.80;;
3541;SDS011;1785;47.388;8.538;2024-01-11T01:32:16;56.30;;;41.60;;
3541;SDS011;1785;47.388;8.538;2024-01-11T01:34:42;56.97;;;36.67;;
3541;SDS011;1785;47.388;8.538;2024-01-11T01:37:08;54.60;;;40.87;;
3541;SDS011;1785;47.388;8.538;2024-01-11T01:39:37;59.60;;;44.43;;
3541;SDS011;1785;47.388;8.538;2024-01-11T01:42:03;53.33;;;39.90;;
3541;SDS011;1785;47.388;8.538;2024-01-11T01:44:30;55.23;;;43.67;;
3541;SDS011;1785;47.388;8.538;2024-01-11T01:46:56;59.60;;;39.80;;
3541;SDS011;1785;47.388;8.538;2024-01-11T01:49:23;55.33;;;37.53;;
3541;SDS011;1785;47.388;8.538;2024-01-11T01:51:49;61.47;;;45.20;;
3541;SDS011;1785;47.388;8.538;2024-01-11T01:54:18;64.43;;;44.50;;
3541;SDS011;1785;47.388;8.538;2024-01-11T01:56:45;61.27;;;37.90;;
3541;SDS011;1785;47.388;8.538;2024-01-11T01:59:11;59.27;;;38.17;;
3541;SDS011;1785;47.388;8.538;2024-01-11T02:01:39;55.70;;;42.47;;
3541;SDS011;1785;47.388;8.538;2024-01-11T02:04:06;58.27;;;40.53;;
3541;SDS011;1785;47.388;8.538;2024-01-11T02:06:33;59.67;;;42.83;;
3541;SDS011;1785;47.388;8.538;2024-01-11T02:09:00;55.30;;;43.17;;
3541;SDS011;1785;47.388;8.538;2024-01-11T02:11:28;62.13;;;46.97;;
3541;SDS011;1785;47.388;8.538;2024-01-11T02:13:55;67.93;;;49.33;;
3541;SDS011;1785;47.388;8.538;2024-01-11T02:16:22;67.53;;;47.70;;
3541;SDS011;1785;47.388;8.538;2024-01-11T02:18:49;69.80;;;49.67;;
3541;SDS011;1785;47.388;8.538;2024-01-11T02:21:16;62.67;;;48.33;;
3541;SDS011;1785;47.388;8.538;2024-01-11T02:23:43;63.63;;;49.57;;
3541;SDS011;1785;47.388;8.538;2024-01-11T02:26:12;57.83;;;44.70;;
3541;SDS011;1785;47.388;8.538;2024-01-11T02:28:42;71.40;;;45.67;;
3541;SDS011;1785;47.388;8.538;2024-01-11T02:31:09;60.83;;;43.60;;
3541;SDS011;1785;47.388;8.538;2024-01-11T02:33:36;54.60;;;41.27;;
3541;SDS011;1785;47.388;8.538;2024-01-11T02:36:02;62.53;;;44.70;;
3541;SDS011;1785;47.388;8.538;2024-01-11T02:38:29;60.27;;;44.37;;
3541;SDS011;1785;47.388;8.538;2024-01-11T02:40:55;56.67;;;43.93;;
3541;SDS011;1785;47.388;8.538;2024-01-11T02:43:24;59.60;;;43.03;;
3541;SDS011;1785;47.388;8.538;2024-01-11T02:45:50;60.73;;;45.17;;
3541;SDS011;1785;47.388;8.538;2024-01-11T02:48:19;64.47;;;45.67;;
3541;SDS011;1785;47.388;8.538;2024-01-11T02:50:47;58.07;;;38.97;;
3541;SDS011;1785;47.388;8.538;2024-01-11T02:53:13;62.23;;;46.30;;
3541;SDS011;1785;47.388;8.538;2024-01-11T02:55:39;55.90;;;37.53;;
3541;SDS011;1785;47.388;8.538;2024-01-11T02:58:06;60.80;;;41.03;;
3541;SDS011;1785;47.388;8.538;2024-01-11T03:00:32;63.47;;;46.57;;
3541;SDS011;1785;47.388;8.538;2024-01-11T03:02:59;60.47;;;40.03;;
3541;SDS011;1785;47.388;8.538;2024-01-11T03:05:25;58.47;;;45.50;;
3541;SDS011;1785;47.388;8.538;2024-01-11T03:07:51;58.37;;;42.93;;
3541;SDS011;1785;47.388;8.538;2024-01-11T03:10:17;63.90;;;47.60;;
3541;SDS011;1785;47.388;8.538;2024-01-11T03:12:43;62.00;;;46.00;;
3541;SDS011;1785;47.388;8.538;2024-01-11T03:15:10;58.67;;;43.40;;
3541;SDS011;1785;47.388;8.538;2024-01-11T03:17:37;56.90;;;37.97;;
3541;SDS011;1785;47.388;8.538;2024-01-11T03:20:03;64.47;;;47.10;;
3541;SDS011;1785;47.388;8.538;2024-01-11T03:22:30;57.77;;;44.00;;
3541;SDS011;1785;47.388;8.538;2024-01-11T03:24:56;63.03;;;39.77;;
3541;SDS011;1785;47.388;8.538;2024-01-11T03:27:23;62.27;;;39.57;;
3541;SDS011;1785;47.388;8.538;2024-01-11T03:29:49;52.10;;;42.47;;
3541;SDS011;1785;47.388;8.538;2024-01-11T03:32:15;54.13;;;35.37;;
3541;SDS011;1785;47.388;8.538;2024-01-11T03:34:42;51.27;;;35.67;;
3541;SDS011;1785;47.388;8.538;2024-01-11T03:37:08;52.77;;;37.00;;
3541;SDS011;1785;47.388;8.538;2024-01-11T03:39:34;56.77;;;43.80;;
3541;SDS011;1785;47.388;8.538;2024-01-11T03:42:00;56.27;;;42.73;;
3541;SDS011;1785;47.388;8.538;2024-01-11T03:44:28;54.00;;;40.60;;
3541;SDS011;1785;47.388;8.538;2024-01-11T03:46:56;59.10;;;38.03;;
3541;SDS011;1785;47.388;8.538;2024-01-11T03:49:22;53.03;;;36.30;;
3541;SDS011;1785;47.388;8.538;2024-01-11T03:51:49;54.17;;;42.30;;
3541;SDS011;1785;47.388;8.538;2024-01-11T03:54:15;53.13;;;40.60;;
3541;SDS011;1785;47.388;8.538;2024-01-11T03:56:42;56.73;;;42.23;;
3541;SDS011;1785;47.388;8.538;2024-01-11T03:59:08;53.10;;;33.60;;
3541;SDS011;1785;47.388;8.538;2024-01-11T04:01:38;58.73;;;41.73;;
3541;SDS011;1785;47.388;8.538;2024-01-11T04:04:05;48.33;;;34.73;;
3541;SDS011;1785;47.388;8.538;2024-01-11T04:06:32;55.70;;;34.10;;
3541;SDS011;1785;47.388;8.538;2024-01-11T04:08:59;52.97;;;42.07;;
3541;SDS011;1785;47.388;8.538;2024-01-11T04:11:26;52.47;;;40.53;;
3541;SDS011;1785;47.388;8.538;2024-01-11T04:13:53;53.37;;;39.67;;
3541;SDS011;1785;47.388;8.538;2024-01-11T04:16:19;55.53;;;40.50;;
3541;SDS011;1785;47.388;8.538;2024-01-11T04:18:46;51.93;;;39.37;;
3541;SDS011;1785;47.388;8.538;2024-01-11T04:21:19;56.43;;;42.10;;
3541;SDS011;1785;47.388;8.538;2024-01-11T04:23:46;51.07;;;40.17;;
3541;SDS011;1785;47.388;8.538;2024-01-11T04:26:13;52.33;;;40.33;;
3541;SDS011;1785;47.388;8.538;2024-01-11T04:28:40;50.20;;;41.27;;
3541;SDS011;1785;47.388;8.538;2024-01-11T04:31:07;61.03;;;41.77;;
3541;SDS011;1785;47.388;8.538;2024-01-11T04:33:33;47.13;;;34.93;;
3541;SDS011;1785;47.388;8.538;2024-01-11T04:36:00;49.13;;;34.90;;
3541;SDS011;1785;47.388;8.538;2024-01-11T04:38:26;52.63;;;41.40;;
3541;SDS011;1785;47.388;8.538;2024-01-11T04:40:52;50.83;;;35.30;;
3541;SDS011;1785;47.388;8.538;2024-01-11T04:43:19;55.27;;;41.27;;
3541;SDS011;1785;47.388;8.538;2024-01-11T04:45:45;53.10;;;39.70;;
3541;SDS011;1785;47.388;8.538;2024-01-11T04:48:11;53.93;;;40.20;;
3541;SDS011;1785;47.388;8.538;2024-01-11T04:50:37;50.70;;;41.00;;
3541;SDS011;1785;47.388;8.538;2024-01-11T04:53:03;55.40;;;41.37;;
3541;SDS011;1785;47.388;8.538;2024-01-11T04:55:30;49.80;;;38.93;;
3541;SDS011;1785;47.388;8.538;2024-01-11T04:57:56;51.60;;;40.37;;
3541;SDS011;1785;47.388;8.538;2024-01-11T05:00:23;53.23;;;39.77;;
3541;SDS011;1785;47.388;8.538;2024-01-11T05:02:49;47.33;;;38.37;;
3541;SDS011;1785;47.388;8.538;2024-01-11T05:05:15;56.20;;;37.10;;
3541;SDS011;1785;47.388;8.538;2024-01-11T05:07:41;48.67;;;37.77;;
3541;SDS011;1785;47.388;8.538;2024-01-11T05:10:08;54.10;;;41.43;;
3541;SDS011;1785;47.388;8.538;2024-01-11T05:12:34;53.00;;;35.07;;
3541;SDS011;1785;47.388;8.538;2024-01-11T05:15:02;47.77;;;39.90;;
3541;SDS011;1785;47.388;8.538;2024-01-11T05:17:29;53.00;;;38.83;;
3541;SDS011;1785;47.388;8.538;2024-01-11T05:19:55;49.80;;;38.63;;
3541;SDS011;1785;47.388;8.538;2024-01-11T05:22:21;56.10;;;40.80;;
3541;SDS011;1785;47.388;8.538;2024-01-11T05:24:47;51.57;;;40.03;;
3541;SDS011;1785;47.388;8.538;2024-01-11T05:27:13;56.43;;;41.80;;
3541;SDS011;1785;47.388;8.538;2024-01-11T05:29:40;55.90;;;39.60;;
3541;SDS011;1785;47.388;8.538;2024-01-11T05:32:06;54.00;;;40.47;;
3541;SDS011;1785;47.388;8.538;2024-01-11T05:34:33;54.87;;;39.07;;
3541;SDS011;1785;47.388;8.538;2024-01-11T05:36:59;57.47;;;43.53;;
3541;SDS011;1785;47.388;8.538;2024-01-11T05:39:25;51.97;;;38.73;;
3541;SDS011;1785;47.388;8.538;2024-01-11T05:41:51;51.47;;;38.17;;
3541;SDS011;1785;47.388;8.538;2024-01-11T05:44:18;50.50;;;37.90;;
3541;SDS011;1785;47.388;8.538;2024-01-11T05:46:44;52.47;;;40.40;;
3541;SDS011;1785;47.388;8.538;2024-01-11T05:49:10;50.00;;;36.90;;
3541;SDS011;1785;47.388;8.538;2024-01-11T05:51:37;52.40;;;38.57;;
3541;SDS011;1785;47.388;8.538;2024-01-11T05:54:03;52.90;;;39.37;;
3541;SDS011;1785;47.388;8.538;2024-01-11T05:56:29;54.47;;;39.13;;
3541;SDS011;1785;47.388;8.538;2024-01-11T05:58:56;49.60;;;39.47;;
3541;SDS011;1785;47.388;8.538;2024-01-11T06:01:22;51.67;;;39.30;;
3541;SDS011;1785;47.388;8.538;2024-01-11T06:03:48;57.47;;;41.47;;
3541;SDS011;1785;47.388;8.538;2024-01-11T06:06:14;61.53;;;41.97;;
3541;SDS011;1785;47.388;8.538;2024-01-11T06:08:42;48.73;;;39.40;;
3541;SDS011;1785;47.388;8.538;2024-01-11T06:11:08;56.90;;;40.80;;
3541;SDS011;1785;47.388;8.538;2024-01-11T06:13:34;52.53;;;40.07;;
3541;SDS011;1785;47.388;8.538;2024-01-11T06:16:01;48.20;;;34.00;;
3541;SDS011;1785;47.388;8.538;2024-01-11T06:18:27;54.10;;;40.50;;
3541;SDS011;1785;47.388;8.538;2024-01-11T06:20:53;51.93;;;39.77;;
3541;SDS011;1785;47.388;8.538;2024-01-11T06:23:19;54.63;;;40.07;;
3541;SDS011;1785;47.388;8.538;2024-01-11T06:25:46;58.03;;;41.77;;
3541;SDS011;1785;47.388;8.538;2024-01-11T06:28:13;54.23;;;41.77;;
3541;SDS011;1785;47.388;8.538;2024-01-11T06:30:39;53.00;;;39.97;;
3541;SDS011;1785;47.388;8.538;2024-01-11T06:33:06;53.00;;;38.73;;
3541;SDS011;1785;47.388;8.538;2024-01-11T06:35:32;49.23;;;38.33;;
3541;SDS011;1785;47.388;8.538;2024-01-11T06:37:58;49.80;;;37.83;;
3541;SDS011;1785;47.388;8.538;2024-01-11T06:40:24;50.97;;;40.33;;
3541;SDS011;1785;47.388;8.538;2024-01-11T06:42:51;47.53;;;37.30;;
3541;SDS011;1785;47.388;8.538;2024-01-11T06:45:17;48.60;;;38.97;;
3541;SDS011;1785;47.388;8.538;2024-01-11T06:47:44;53.90;;;40.03;;
3541;SDS011;1785;47.388;8.538;2024-01-11T06:50:11;47.20;;;38.67;;
3541;SDS011;1785;47.388;8.538;2024-01-11T06:52:38;53.37;;;38.83;;
3541;SDS011;1785;47.388;8.538;2024-01-11T06:55:05;50.30;;;40.17;;
3541;SDS011;1785;47.388;8.538;2024-01-11T06:57:32;49.87;;;39.57;;
3541;SDS011;1785;47.388;8.538;2024-01-11T06:59:58;52.00;;;39.67;;
3541;SDS011;1785;47.388;8.538;2024-01-11T07:02:25;53.23;;;39.30;;
3541;SDS011;1785;47.388;8.538;2024-01-11T07:04:51;60.27;;;41.10;;
3541;SDS011;1785;47.388;8.538;2024-01-11T07:07:17;56.60;;;42.73;;
3541;SDS011;1785;47.388;8.538;2024-01-11T07:09:43;52.37;;;41.27;;
3541;SDS011;1785;47.388;8.538;2024-01-11T07:12:10;53.07;;;39.93;;
3541;SDS011;1785;47.388;8.538;2024-01-11T07:14:36;57.37;;;42.00;;
3541;SDS011;1785;47.388;8.538;2024-01-11T07:17:03;56.50;;;42.07;;
3541;SDS011;1785;47.388;8.538;2024-01-11T07:19:29;55.60;;;41.83;;
3541;SDS011;1785;47.388;8.538;2024-01-11T07:21:56;52.70;;;40.17;;
3541;SDS011;1785;47.388;8.538;2024-01-11T07:24:22;54.20;;;41.40;;
3541;SDS011;1785;47.388;8.538;2024-01-11T07:26:48;51.23;;;40.07;;
3541;SDS011;1785;47.388;8.538;2024-01-11T07:29:14;49.93;;;35.83;;
3541;SDS011;1785;47.388;8.538;2024-01-11T07:31:40;55.57;;;41.07;;
3541;SDS011;1785;47.388;8.538;2024-01-11T07:34:08;52.80;;;39.33;;
3541;SDS011;1785;47.388;8.538;2024-01-11T07:36:34;52.73;;;39.07;;
3541;SDS011;1785;47.388;8.538;2024-01-11T07:39:00;48.33;;;38.93;;
3541;SDS011;1785;47.388;8.538;2024-01-11T07:41:27;49.53;;;38.97;;
3541;SDS011;1785;47.388;8.538;2024-01-11T07:43:53;48.80;;;38.90;;
3541;SDS011;1785;47.388;8.538;2024-01-11T07:46:23;48.20;;;36.80;;
3541;SDS011;1785;47.388;8.538;2024-01-11T07:48:50;56.03;;;38.97;;
3541;SDS011;1785;47.388;8.538;2024-01-11T07:51:16;52.10;;;39.70;;
3541;SDS011;1785;47.388;8.538;2024-01-11T07:53:42;47.80;;;37.70;;
3541;SDS011;1785;47.388;8.538;2024-01-11T07:56:09;52.60;;;38.00;;
3541;SDS011;1785;47.388;8.538;2024-01-11T07:58:35;50.00;;;38.10;;
3541;SDS011;1785;47.388;8.538;2024-01-11T08:01:02;52.40;;;41.13;;
3541;SDS011;1785;47.388;8.538;2024-01-11T08:03:29;53.70;;;41.43;;
3541;SDS011;1785;47.388;8.538;2024-01-11T08:05:55;49.03;;;38.47;;
3541;SDS011;1785;47.388;8.538;2024-01-11T08:08:22;54.83;;;42.00;;
3541;SDS011;1785;47.388;8.538;2024-01-11T08:10:49;51.10;;;39.90;;
3541;SDS011;1785;47.388;8.538;2024-01-11T08:13:15;57.37;;;42.50;;
3541;SDS011;1785;47.388;8.538;2024-01-11T08:15:42;59.07;;;44.47;;
3541;SDS011;1785;47.388;8.538;2024-01-11T08:18:09;55.40;;;42.40;;
3541;SDS011;1785;47.388;8.538;2024-01-11T08:20:35;56.37;;;42.20;;
3541;SDS011;1785;47.388;8.538;2024-01-11T08:23:01;52.60;;;41.23;;
3541;SDS011;1785;47.388;8.538;2024-01-11T08:25:29;51.60;;;40.50;;
3541;SDS011;1785;47.388;8.538;2024-01-11T08:27:55;52.70;;;40.70;;
3541;SDS011;1785;47.388;8.538;2024-01-11T08:30:21;47.80;;;40.30;;
3541;SDS011;1785;47.388;8.538;2024-01-11T08:32:48;55.17;;;41.90;;
3541;SDS011;1785;47.388;8.538;2024-01-11T08:35:14;57.07;;;43.20;;
3541;SDS011;1785;47.388;8.538;2024-01-11T08:37:41;50.00;;;40.30;;
3541;SDS011;1785;47.388;8.538;2024-01-11T08:40:07;58.10;;;42.60;;
3541;SDS011;1785;47.388;8.538;2024-01-11T08:42:35;51.30;;;40.17;;
3541;SDS011;1785;47.388;8.538;2024-01-11T08:45:03;48.00;;;39.70;;
3541;SDS011;1785;47.388;8.538;2024-01-11T08:47:32;49.37;;;38.47;;
3541;SDS011;1785;47.388;8.538;2024-01-11T08:49:58;49.87;;;39.33;;
3541;SDS011;1785;47.388;8.538;2024-01-11T08:52:25;49.07;;;38.37;;
3541;SDS011;1785;47.388;8.538;2024-01-11T08:54:51;45.90;;;38.60;;
3541;SDS011;1785;47.388;8.538;2024-01-11T08:57:17;52.30;;;40.40;;
3541;SDS011;1785;47.388;8.538;2024-01-11T08:59:44;47.37;;;38.87;;
3541;SDS011;1785;47.388;8.538;2024-01-11T09:02:10;52.90;;;40.70;;
3541;SDS011;1785;47.388;8.538;2024-01-11T09:04:36;58.83;;;39.47;;
3541;SDS011;1785;47.388;8.538;2024-01-11T09:07:03;47.80;;;36.30;;
3541;SDS011;1785;47.388;8.538;2024-01-11T09:09:29;44.80;;;37.80;;
3541;SDS011;1785;47.388;8.538;2024-01-11T09:11:55;47.07;;;35.90;;
3541;SDS011;1785;47.388;8.538;2024-01-11T09:14:21;44.30;;;36.07;;
3541;SDS011;1785;47.388;8.538;2024-01-11T09:16:48;55.00;;;39.70;;
3541;SDS011;1785;47.388;8.538;2024-01-11T09:19:15;47.00;;;37.10;;
3541;SDS011;1785;47.388;8.538;2024-01-11T09:21:41;43.90;;;34.23;;
3541;SDS011;1785;47.388;8.538;2024-01-11T09:24:07;41.37;;;35.07;;
3541;SDS011;1785;47.388;8.538;2024-01-11T09:26:33;51.70;;;37.17;;
3541;SDS011;1785;47.388;8.538;2024-01-11T09:29:01;41.80;;;34.77;;
3541;SDS011;1785;47.388;8.538;2024-01-11T09:31:29;48.80;;;37.40;;
3541;SDS011;1785;47.388;8.538;2024-01-11T09:33:55;52.13;;;39.97;;
3541;SDS011;1785;47.388;8.538;2024-01-11T09:36:22;59.90;;;47.80;;
3541;SDS011;1785;47.388;8.538;2024-01-11T09:38:48;61.67;;;48.97;;
3541;SDS011;1785;47.388;8.538;2024-01-11T09:41:15;56.63;;;50.30;;
3541;SDS011;1785;47.388;8.538;2024-01-11T09:43:41;65.80;;;50.30;;
3541;SDS011;1785;47.388;8.538;2024-01-11T09:46:08;66.43;;;52.33;;
3541;SDS011;1785;47.388;8.538;2024-01-11T09:48:38;64.10;;;50.77;;
3541;SDS011;1785;47.388;8.538;2024-01-11T09:51:05;65.63;;;49.03;;
3541;SDS011;1785;47.388;8.538;2024-01-11T09:53:36;60.40;;;51.67;;
3541;SDS011;1785;47.388;8.538;2024-01-11T09:56:04;57.03;;;48.07;;
3541;SDS011;1785;47.388;8.538;2024-01-11T09:58:33;63.73;;;51.77;;
3541;SDS011;1785;47.388;8.538;2024-01-11T10:01:01;66.30;;;52.20;;
3541;SDS011;1785;47.388;8.538;2024-01-11T10:03:28;64.20;;;51.43;;
3541;SDS011;1785;47.388;8.538;2024-01-11T10:05:57;71.93;;;53.37;;
3541;SDS011;1785;47.388;8.538;2024-01-11T10:08:25;69.53;;;55.07;;
3541;SDS011;1785;47.388;8.538;2024-01-11T10:10:52;58.47;;;42.67;;
3541;SDS011;1785;47.388;8.538;2024-01-11T10:13:19;55.83;;;42.60;;
3541;SDS011;1785;47.388;8.538;2024-01-11T10:15:52;66.63;;;53.20;;
3541;SDS011;1785;47.388;8.538;2024-01-11T10:18:18;65.13;;;44.23;;
3541;SDS011;1785;47.388;8.538;2024-01-11T10:20:48;71.77;;;53.30;;
3541;SDS011;1785;47.388;8.538;2024-01-11T10:23:17;63.20;;;45.60;;
3541;SDS011;1785;47.388;8.538;2024-01-11T10:25:44;77.33;;;56.00;;
3541;SDS011;1785;47.388;8.538;2024-01-11T10:28:12;57.50;;;42.33;;
3541;SDS011;1785;47.388;8.538;2024-01-11T10:30:39;59.50;;;49.80;;
3541;SDS011;1785;47.388;8.538;2024-01-11T10:33:06;68.40;;;50.43;;
3541;SDS011;1785;47.388;8.538;2024-01-11T10:35:33;65.10;;;51.20;;
3541;SDS011;1785;47.388;8.538;2024-01-11T10:38:00;59.43;;;42.00;;
3541;SDS011;1785;47.388;8.538;2024-01-11T10:40:34;57.23;;;40.63;;
3541;SDS011;1785;47.388;8.538;2024-01-11T10:43:02;59.03;;;48.60;;
3541;SDS011;1785;47.388;8.538;2024-01-11T10:45:31;61.90;;;50.17;;
3541;SDS011;1785;47.388;8.538;2024-01-11T10:48:06;56.87;;;47.80;;
3541;SDS011;1785;47.388;8.538;2024-01-11T10:50:36;61.50;;;50.50;;
3541;SDS011;1785;47.388;8.538;2024-01-11T10:53:08;55.57;;;47.60;;
3541;SDS011;1785;47.388;8.538;2024-01-11T10:55:50;62.07;;;41.53;;
3541;SDS011;1785;47.388;8.538;2024-01-11T10:58:18;57.93;;;48.77;;
3541;SDS011;1785;47.388;8.538;2024-01-11T11:00:46;59.83;;;47.07;;
3541;SDS011;1785;47.388;8.538;2024-01-11T11:03:14;57.47;;;42.70;;
3541;SDS011;1785;47.388;8.538;2024-01-11T11:05:43;62.10;;;52.17;;
3541;SDS011;1785;47.388;8.538;2024-01-11T11:08:11;61.03;;;42.90;;
3541;SDS011;1785;47.388;8.538;2024-01-11T11:10:39;64.83;;;53.30;;
3541;SDS011;1785;47.388;8.538;2024-01-11T11:13:07;63.07;;;44.47;;
3541;SDS011;1785;47.388;8.538;2024-01-11T11:15:35;60.73;;;51.53;;
3541;SDS011;1785;47.388;8.538;2024-01-11T11:18:03;69.33;;;55.70;;
3541;SDS011;1785;47.388;8.538;2024-01-11T11:20:31;61.17;;;42.37;;
3541;SDS011;1785;47.388;8.538;2024-01-11T11:23:04;69.73;;;52.20;;
3541;SDS011;1785;47.388;8.538;2024-01-11T11:25:31;60.77;;;39.87;;
3541;SDS011;1785;47.388;8.538;2024-01-11T11:27:57;63.07;;;52.07;;
3541;SDS011;1785;47.388;8.538;2024-01-11T11:30:26;62.80;;;50.60;;
3541;SDS011;1785;47.388;8.538;2024-01-11T11:32:53;65.40;;;41.90;;
3541;SDS011;1785;47.388;8.538;2024-01-11T11:35:22;64.07;;;51.30;;
3541;SDS011;1785;47.388;8.538;2024-01-11T11:37:48;65.83;;;44.10;;
3541;SDS011;1785;47.388;8.538;2024-01-11T11:40:20;72.30;;;53.67;;
3541;SDS011;1785;47.388;8.538;2024-01-11T11:42:47;64.00;;;50.50;;
3541;SDS011;1785;47.388;8.538;2024-01-11T11:45:13;61.07;;;50.47;;
3541;SDS011;1785;47.388;8.538;2024-01-11T11:47:50;64.73;;;48.60;;
3541;SDS011;1785;47.388;8.538;2024-01-11T11:50:17;58.17;;;40.57;;
3541;SDS011;1785;47.388;8.538;2024-01-11T11:52:47;61.00;;;41.23;;
3541;SDS011;1785;47.388;8.538;2024-01-11T11:55:19;57.33;;;38.77;;
3541;SDS011;1785;47.388;8.538;2024-01-11T11:57:47;66.97;;;51.30;;
3541;SDS011;1785;47.388;8.538;2024-01-11T12:00:14;69.83;;;53.07;;
3541;SDS011;1785;47.388;8.538;2024-01-11T12:02:41;60.47;;;50.83;;
3541;SDS011;1785;47.388;8.538;2024-01-11T12:05:08;65.70;;;45.30;;
3541;SDS011;1785;47.388;8.538;2024-01-11T12:07:34;66.40;;;50.00;;
3541;SDS011;1785;47.388;8.538;2024-01-11T12:10:01;71.73;;;51.90;;
3541;SDS011;1785;47.388;8.538;2024-01-11T12:12:27;63.33;;;43.10;;
3541;SDS011;1785;47.388;8.538;2024-01-11T12:14:54;66.63;;;51.40;;
3541;SDS011;1785;47.388;8.538;2024-01-11T12:17:20;63.27;;;49.47;;
3541;SDS011;1785;47.388;8.538;2024-01-11T12:19:46;63.67;;;47.63;;
3541;SDS011;1785;47.388;8.538;2024-01-11T12:22:13;59.40;;;47.03;;
3541;SDS011;1785;47.388;8.538;2024-01-11T12:24:40;62.40;;;41.70;;
3541;SDS011;1785;47.388;8.538;2024-01-11T12:27:07;64.33;;;43.30;;
3541;SDS011;1785;47.388;8.538;2024-01-11T12:29:33;60.50;;;48.17;;
3541;SDS011;1785;47.388;8.538;2024-01-11T12:31:59;56.13;;;40.33;;
3541;SDS011;1785;47.388;8.538;2024-01-11T12:34:26;61.10;;;47.97;;
3541;SDS011;1785;47.388;8.538;2024-01-11T12:36:53;46.00;;;36.33;;
3541;SDS011;1785;47.388;8.538;2024-01-11T12:39:20;53.70;;;42.00;;
3541;SDS011;1785;47.388;8.538;2024-01-11T12:41:48;52.60;;;39.67;;
3541;SDS011;1785;47.388;8.538;2024-01-11T12:44:16;52.23;;;38.77;;
3541;SDS011;1785;47.388;8.538;2024-01-11T12:46:44;51.00;;;41.83;;
3541;SDS011;1785;47.388;8.538;2024-01-11T12:49:10;46.60;;;33.93;;
3541;SDS011;1785;47.388;8.538;2024-01-11T12:51:37;51.33;;;34.30;;
3541;SDS011;1785;47.388;8.538;2024-01-11T12:54:05;47.10;;;38.17;;
3541;SDS011;1785;47.388;8.538;2024-01-11T12:56:40;42.40;;;32.70;;
3541;SDS011;1785;47.388;8.538;2024-01-11T12:59:08;47.77;;;33.00;;
3541;SDS011;1785;47.388;8.538;2024-01-11T13:01:36;41.90;;;33.90;;
3541;SDS011;1785;47.388;8.538;2024-01-11T13:04:03;43.40;;;34.90;;
3541;SDS011;1785;47.388;8.538;2024-01-11T13:06:29;50.97;;;39.57;;
3541;SDS011;1785;47.388;8.538;2024-01-11T13:08:56;45.07;;;38.63;;
3541;SDS011;1785;47.388;8.538;2024-01-11T13:11:22;47.07;;;39.57;;
3541;SDS011;1785;47.388;8.538;2024-01-11T13:13:49;49.73;;;38.73;;
3541;SDS011;1785;47.388;8.538;2024-01-11T13:16:16;43.67;;;31.17;;
3541;SDS011;1785;47.388;8.538;2024-01-11T13:18:44;45.20;;;33.10;;
3541;SDS011;1785;47.388;8.538;2024-01-11T13:21:10;44.40;;;38.77;;
3541;SDS011;1785;47.388;8.538;2024-01-11T13:23:37;41.43;;;32.20;;
3541;SDS011;1785;47.388;8.538;2024-01-11T13:26:05;48.40;;;38.83;;
3541;SDS011;1785;47.388;8.538;2024-01-11T13:28:31;45.50;;;37.13;;
3541;SDS011;1785;47.388;8.538;2024-01-11T13:30:58;43.97;;;36.43;;
3541;SDS011;1785;47.388;8.538;2024-01-11T13:33:26;45.80;;;36.17;;
3541;SDS011;1785;47.388;8.538;2024-01-11T13:35:52;40.70;;;29.90;;
3541;SDS011;1785;47.388;8.538;2024-01-11T13:38:18;46.03;;;30.43;;
3541;SDS011;1785;47.388;8.538;2024-01-11T13:40:44;47.47;;;35.70;;
3541;SDS011;1785;47.388;8.538;2024-01-11T13:43:11;40.43;;;35.20;;
3541;SDS011;1785;47.388;8.538;2024-01-11T13:45:37;41.73;;;35.10;;
3541;SDS011;1785;47.388;8.538;2024-01-11T13:48:03;43.43;;;30.90;;
3541;SDS011;1785;47.388;8.538;2024-01-11T13:50:31;43.13;;;35.20;;
3541;SDS011;1785;47.388;8.538;2024-01-11T13:52:57;42.23;;;31.67;;
3541;SDS011;1785;47.388;8.538;2024-01-11T13:55:24;47.03;;;38.17;;
3541;SDS011;1785;47.388;8.538;2024-01-11T13:57:50;42.47;;;32.40;;
3541;SDS011;1785;47.388;8.538;2024-01-11T14:00:18;43.63;;;34.67;;
3541;SDS011;1785;47.388;8.538;2024-01-11T14:02:44;45.43;;;34.70;;
3541;SDS011;1785;47.388;8.538;2024-01-11T14:05:12;46.40;;;37.27;;
3541;SDS011;1785;47.388;8.538;2024-01-11T14:07:40;47.97;;;36.77;;
3541;SDS011;1785;47.388;8.538;2024-01-11T14:10:09;43.70;;;34.30;;
3541;SDS011;1785;47.388;8.538;2024-01-11T14:12:36;44.50;;;35.67;;
3541;SDS011;1785;47.388;8.538;2024-01-11T14:15:03;40.07;;;33.27;;
3541;SDS011;1785;47.388;8.538;2024-01-11T14:17:31;45.00;;;35.40;;
3541;SDS011;1785;47.388;8.538;2024-01-11T14:19:58;43.07;;;31.17;;
3541;SDS011;1785;47.388;8.538;2024-01-11T14:22:25;44.90;;;29.00;;
3541;SDS011;1785;47.388;8.538;2024-01-11T14:24:52;44.37;;;36.10;;
3541;SDS011;1785;47.388;8.538;2024-01-11T14:27:19;48.60;;;37.10;;
3541;SDS011;1785;47.388;8.538;2024-01-11T14:29:46;43.70;;;34.73;;
3541;SDS011;1785;47.388;8.538;2024-01-11T14:32:12;41.70;;;33.80;;
3541;SDS011;1785;47.388;8.538;2024-01-11T14:34:41;44.27;;;35.37;;
3541;SDS011;1785;47.388;8.538;2024-01-11T14:37:07;47.03;;;31.63;;
3541;SDS011;1785;47.388;8.538;2024-01-11T14:39:34;40.17;;;33.33;;
3541;SDS011;1785;47.388;8.538;2024-01-11T14:42:00;43.27;;;28.73;;
3541;SDS011;1785;47.388;8.538;2024-01-11T14:44:27;44.93;;;36.23;;
3541;SDS011;1785;47.388;8.538;2024-01-11T14:46:53;40.83;;;32.93;;